Time;durP1;ratioP1;P1;durP2;ratioP2;P2;SDS_P1;SDS_P2;PMS_P1;PMS_P2;Temp;Humidity;BMP_temperature;BMP_pressure;BME280_temperature;BME280_humidity;BME280_pressure;Samples;Min_cycle;Max_cycle;Signal;HPM_P1;HPM_P2
2023/08/17 00:01:37;;;;;;;;;;;;;;;28.86;36.19;96921.25;4158180;28;5753;-68
2023/08/17 00:03:41;;;;;;;;;;;;;;;28.85;36.32;96914.19;4170078;28;5738;-68
2023/08/17 00:05:44;;;;;;;;;;;;;;;28.76;36.07;96907.88;4167814;28;5782;-68
2023/08/17 00:07:47;;;;;;;;;;;;;;;28.76;36.30;96915.22;4179985;28;5650;-68
2023/08/17 00:09:51;;;;;;;;;;;;;;;28.74;36.42;96912.81;4151418;28;6489;-68
2023/08/17 00:11:53;;;;;;;;;;;;;;;28.74;36.37;96912.81;4157280;28;5634;-68
2023/08/17 00:13:56;;;;;;;;;;;;;;;28.75;36.49;96914.41;4183968;28;5850;-68
2023/08/17 00:15:59;;;;;;;;;;;;;;;28.75;36.61;96914.41;4160109;28;5732;-68
2023/08/17 00:18:02;;;;;;;;;;;;;;;28.72;37.07;96915.03;4167513;28;5678;-69
2023/08/17 00:20:09;;;;;;;;;;;;;;;28.71;37.02;96916.16;4163092;28;5661;-68
2023/08/17 00:22:12;;;;;;;;;;;;;;;28.69;37.30;96916.47;4170361;28;5837;-68
2023/08/17 00:24:15;;;;;;;;;;;;;;;28.66;37.38;96905.41;4151474;28;5717;-68
2023/08/17 00:26:18;;;;;;;;;;;;;;;28.62;37.54;96918.00;4159337;28;5717;-68
2023/08/17 00:28:21;;;;;;;;;;;;;;;28.59;37.53;96911.25;4164322;28;5638;-68
2023/08/17 00:30:23;;;;;;;;;;;;;;;28.62;37.72;96916.06;4161382;28;5890;-68
2023/08/17 00:32:26;;;;;;;;;;;;;;;28.64;37.66;96902.97;4151346;28;5728;-68
2023/08/17 00:34:29;;;;;;;;;;;;;;;28.60;37.57;96907.41;4167431;28;5770;-68
2023/08/17 00:36:33;;;;;;;;;;;;;;;28.56;37.62;96917.31;4151241;28;5851;-69
2023/08/17 00:38:36;;;;;;;;;;;;;;;28.55;37.60;96914.91;4151499;28;5754;-69
2023/08/17 00:40:39;;;;;;;;;;;;;;;28.53;37.36;96911.66;4151872;28;5668;-68
2023/08/17 00:42:42;;;;;;;;;;;;;;;28.51;37.40;96911.97;4176658;28;5821;-69
2023/08/17 00:44:44;;;;;;;;;;;;;;;28.49;37.47;96916.09;4171766;28;5760;-68
2023/08/17 00:46:47;;;;;;;;;;;;;;;28.44;37.57;96914.31;4150654;28;6191;-68
2023/08/17 00:48:50;;;;;;;;;;;;;;;28.45;37.58;96902.31;4167100;28;5639;-68
2023/08/17 00:50:54;;;;;;;;;;;;;;;28.48;37.59;96909.88;4162086;28;5662;-68
2023/08/17 00:52:59;;;;;;;;;;;;;;;28.47;37.33;96912.91;4179137;28;5650;-68
2023/08/17 00:55:03;;;;;;;;;;;;;;;28.48;37.48;96901.72;4175678;28;5732;-68
2023/08/17 00:57:06;;;;;;;;;;;;;;;28.50;37.38;96901.41;4176266;28;5891;-68
2023/08/17 00:59:09;;;;;;;;;;;;;;;28.51;37.45;96905.72;4184217;28;5686;-68
2023/08/17 01:01:12;;;;;;;;;;;;;;;28.52;37.25;96904.63;4159199;28;5738;-68
2023/08/17 01:03:18;;;;;;;;;;;;;;;28.52;37.24;96904.63;4159898;28;5661;-67
2023/08/17 01:05:22;;;;;;;;;;;;;;;28.54;37.30;96902.38;4185625;28;5737;-68
2023/08/17 01:07:24;;;;;;;;;;;;;;;28.55;37.31;96909.47;4187243;28;5666;-68
2023/08/17 01:09:29;;;;;;;;;;;;;;;28.51;37.23;96901.09;4169958;28;5734;-68
2023/08/17 01:11:37;;;;;;;;;;;;;;;28.51;37.20;96908.44;4162179;28;5693;-68
2023/08/17 01:13:48;;;;;;;;;;;;;;;28.53;37.44;96901.59;4144322;28;5904;-68
2023/08/17 01:15:57;;;;;;;;;;;;;;;28.53;37.25;96906.22;4164395;28;5789;-68
2023/08/17 01:18:08;;;;;;;;;;;;;;;28.53;37.19;96895.34;4170370;28;5775;-68
2023/08/17 01:20:13;;;;;;;;;;;;;;;28.52;37.29;96899.19;4176454;28;5869;-68
2023/08/17 01:22:18;;;;;;;;;;;;;;;28.50;37.32;96901.41;4161206;28;5721;-68
2023/08/17 01:24:23;;;;;;;;;;;;;;;28.48;37.51;96901.72;4170470;28;5932;-68
2023/08/17 01:26:26;;;;;;;;;;;;;;;28.52;37.46;96901.91;4169312;28;5685;-68
2023/08/17 01:28:29;;;;;;;;;;;;;;;28.50;37.57;96896.75;4151475;28;5672;-68
2023/08/17 01:30:39;;;;;;;;;;;;;;;28.52;37.37;96904.63;4161013;28;5785;-68
2023/08/17 01:32:49;;;;;;;;;;;;;;;28.53;37.31;96893.44;4153937;28;5855;-68
2023/08/17 01:34:58;;;;;;;;;;;;;;;28.54;37.45;96897.78;4175436;28;5817;-68
2023/08/17 01:37:02;;;;;;;;;;;;;;;28.55;37.29;96898.59;4162220;28;5872;-70
2023/08/17 01:39:06;;;;;;;;;;;;;;;28.54;37.32;96905.09;4162723;28;6347;-68
2023/08/17 01:41:15;;;;;;;;;;;;;;;28.55;37.18;96893.16;4165163;28;6466;-68
2023/08/17 01:43:19;;;;;;;;;;;;;;;28.56;37.33;96892.84;4163617;28;5713;-68
2023/08/17 01:45:22;;;;;;;;;;;;;;;28.57;37.31;96896.34;4153243;28;5819;-68
2023/08/17 01:47:25;;;;;;;;;;;;;;;28.56;37.36;96895.56;4161469;28;5851;-68
2023/08/17 01:49:29;;;;;;;;;;;;;;;28.58;37.43;96897.97;4152453;28;5955;-68
2023/08/17 01:51:32;;;;;;;;;;;;;;;28.56;37.40;96887.41;4153471;28;5766;-68
2023/08/17 01:53:35;;;;;;;;;;;;;;;28.53;37.38;96890.72;4162157;28;5654;-69
2023/08/17 01:55:38;;;;;;;;;;;;;;;28.51;37.41;96886.69;4168931;28;5653;-68
2023/08/17 01:57:41;;;;;;;;;;;;;;;28.51;37.45;96898.38;4169361;28;5805;-68
2023/08/17 01:59:44;;;;;;;;;;;;;;;28.52;37.38;96894.53;4172741;28;5721;-68
2023/08/17 02:01:47;;;;;;;;;;;;;;;28.55;37.39;96899.38;4181312;28;6316;-68
2023/08/17 02:03:50;;;;;;;;;;;;;;;28.56;37.34;96889.31;4157967;28;5732;-69
2023/08/17 02:05:52;;;;;;;;;;;;;;;28.55;37.20;96882.28;4163944;28;5712;-69
2023/08/17 02:07:54;;;;;;;;;;;;;;;28.53;37.24;96881.75;4169697;28;5744;-69
2023/08/17 02:09:57;;;;;;;;;;;;;;;28.51;37.30;96879.34;4176557;28;5650;-69
2023/08/17 02:11:59;;;;;;;;;;;;;;;28.47;37.28;96869.38;4177117;28;5654;-69
2023/08/17 02:14:03;;;;;;;;;;;;;;;28.44;37.03;96875.44;4173098;28;5748;-69
2023/08/17 02:16:06;;;;;;;;;;;;;;;28.44;37.28;96867.28;4164226;28;5853;-69
2023/08/17 02:18:09;;;;;;;;;;;;;;;28.42;37.13;96873.81;4179620;28;5643;-69
2023/08/17 02:20:13;;;;;;;;;;;;;;;28.38;37.02;96870.09;4170188;28;5800;-69
2023/08/17 02:22:16;;;;;;;;;;;;;;;28.38;37.22;96861.94;4160978;28;5854;-69
2023/08/17 02:24:18;;;;;;;;;;;;;;;28.39;37.05;96857.31;4153203;28;5721;-68
2023/08/17 02:26:22;;;;;;;;;;;;;;;28.37;36.99;96854.91;4160129;28;5751;-68
2023/08/17 02:28:25;;;;;;;;;;;;;;;28.32;36.81;96857.75;4175563;28;5725;-68
2023/08/17 02:30:29;;;;;;;;;;;;;;;28.29;36.93;96858.34;4167992;28;5645;-68
2023/08/17 02:32:32;;;;;;;;;;;;;;;28.28;36.89;96856.72;4186098;28;6853;-68
2023/08/17 02:34:35;;;;;;;;;;;;;;;28.28;36.90;96856.72;4169602;28;5658;-68
2023/08/17 02:36:38;;;;;;;;;;;;;;;28.29;36.91;96866.50;4170530;28;5650;-68
2023/08/17 02:38:41;;;;;;;;;;;;;;;28.31;36.99;96858.03;4176773;28;5752;-68
2023/08/17 02:40:44;;;;;;;;;;;;;;;28.32;36.99;96856.94;4170720;28;5674;-69
2023/08/17 02:42:47;;;;;;;;;;;;;;;28.33;36.91;96864.78;4167938;28;5827;-68
2023/08/17 02:44:50;;;;;;;;;;;;;;;28.33;36.84;96869.44;4180804;28;5646;-68
2023/08/17 02:46:55;;;;;;;;;;;;;;;28.32;37.00;96878.69;4175128;28;5741;-69
2023/08/17 02:48:58;;;;;;;;;;;;;;;28.32;36.93;96868.63;4176985;28;5830;-68
2023/08/17 02:51:00;;;;;;;;;;;;;;;28.33;36.98;96875.66;4176919;28;5766;-68
2023/08/17 02:53:04;;;;;;;;;;;;;;;28.31;36.98;96871.63;4169107;28;5729;-68
2023/08/17 02:55:07;;;;;;;;;;;;;;;28.32;37.07;96879.50;4160714;28;5899;-68
2023/08/17 02:57:10;;;;;;;;;;;;;;;28.31;37.09;96877.88;4159481;28;5923;-68
2023/08/17 02:59:13;;;;;;;;;;;;;;;28.30;37.21;96878.16;4168667;28;5912;-68
2023/08/17 03:01:16;;;;;;;;;;;;;;;28.29;37.34;96866.50;4153238;28;5091;-69
2023/08/17 03:03:20;;;;;;;;;;;;;;;28.31;37.34;96871.63;4164900;28;5647;-69
2023/08/17 03:05:23;;;;;;;;;;;;;;;28.27;37.28;96876.88;4169866;28;5799;-69
2023/08/17 03:07:26;;;;;;;;;;;;;;;28.25;37.28;96867.38;4153114;28;7464;-69
2023/08/17 03:09:30;;;;;;;;;;;;;;;28.15;37.42;96873.84;4184676;28;5662;-69
2023/08/17 03:11:33;;;;;;;;;;;;;;;28.10;37.65;96869.34;4168567;28;5970;-69
2023/08/17 03:13:36;;;;;;;;;;;;;;;28.07;37.57;96869.91;4152463;28;5795;-70
2023/08/17 03:15:39;;;;;;;;;;;;;;;28.01;37.79;96864.91;4175086;28;5666;-69
2023/08/17 03:17:43;;;;;;;;;;;;;;;28.00;37.71;96860.59;4152173;28;5755;-69
2023/08/17 03:19:47;;;;;;;;;;;;;;;28.00;37.49;96866.81;4155759;28;5737;-69
2023/08/17 03:21:50;;;;;;;;;;;;;;;28.01;37.65;96867.63;4163771;28;5807;-67
2023/08/17 03:23:53;;;;;;;;;;;;;;;28.01;37.74;96851.31;4158534;28;7300;-69
2023/08/17 03:25:56;;;;;;;;;;;;;;;27.99;37.63;96869.84;4158645;28;6318;-69
2023/08/17 03:27:59;;;;;;;;;;;;;;;28.00;37.85;96866.81;4184876;28;5859;-69
2023/08/17 03:30:02;;;;;;;;;;;;;;;27.96;38.12;96865.81;4176608;28;7695;-69
2023/08/17 03:32:05;;;;;;;;;;;;;;;27.92;38.21;96858.56;4167891;28;6555;-69
2023/08/17 03:34:08;;;;;;;;;;;;;;;27.96;38.21;96865.00;4168271;28;5630;-69
2023/08/17 03:36:12;;;;;;;;;;;;;;;27.98;38.20;96857.38;4162752;28;5658;-69
2023/08/17 03:38:14;;;;;;;;;;;;;;;27.96;38.57;96859.56;4162504;28;5784;-69
2023/08/17 03:40:17;;;;;;;;;;;;;;;27.96;38.57;96865.00;4152358;28;5765;-69
2023/08/17 03:42:20;;;;;;;;;;;;;;;27.94;38.85;96857.16;4167750;28;5729;-69
2023/08/17 03:44:23;;;;;;;;;;;;;;;27.91;38.83;96859.69;4175156;28;5760;-69
2023/08/17 03:46:25;;;;;;;;;;;;;;;27.92;38.95;96858.56;4159764;28;5870;-69
2023/08/17 03:48:28;;;;;;;;;;;;;;;27.93;38.96;96857.47;4166404;28;5658;-69
2023/08/17 03:50:31;;;;;;;;;;;;;;;27.95;38.92;96860.69;4166980;28;5665;-69
2023/08/17 03:52:35;;;;;;;;;;;;;;;27.96;38.91;96867.72;4151663;28;5876;-69
2023/08/17 03:54:38;;;;;;;;;;;;;;;27.97;38.73;96864.69;4164665;28;5677;-69
2023/08/17 05:34:14;;;;;;;;;;;;;;;26.48;47.79;97005.75;4256903;27;10338;-65
2023/08/17 05:36:17;;;;;;;;;;;;;;;26.75;47.82;97009.78;4257286;27;5836;-65
2023/08/17 05:38:20;;;;;;;;;;;;;;;26.98;47.73;97006.19;4249975;27;5606;-65
2023/08/17 05:40:23;;;;;;;;;;;;;;;27.17;47.83;97007.00;4255730;27;5593;-65
2023/08/17 05:42:26;;;;;;;;;;;;;;;27.33;47.65;97006.78;4248903;27;5593;-66
2023/08/17 05:44:29;;;;;;;;;;;;;;;27.45;47.49;97007.13;4249024;27;5668;-67
2023/08/17 05:46:32;;;;;;;;;;;;;;;27.54;47.56;96999.94;4251577;27;5680;-66
2023/08/17 05:48:35;;;;;;;;;;;;;;;27.62;47.75;97001.94;4265932;27;5586;-67
2023/08/17 05:50:42;;;;;;;;;;;;;;;27.69;47.41;97005.13;4262214;27;5629;-66
2023/08/17 05:52:45;;;;;;;;;;;;;;;27.71;47.90;96997.47;4252306;27;6291;-67
2023/08/17 05:54:47;;;;;;;;;;;;;;;27.74;47.71;96996.06;4265373;27;5595;-67
2023/08/17 05:56:50;;;;;;;;;;;;;;;27.74;47.44;96994.16;4257070;27;5607;-67
2023/08/17 05:58:53;;;;;;;;;;;;;;;27.80;47.66;97001.13;4253151;27;5597;-67
2023/08/17 06:01:05;;;;;;;;;;;;;;;27.81;47.63;97005.47;4247268;27;5079;-67
2023/08/17 06:03:07;;;;;;;;;;;;;;;27.83;47.72;97011.41;4235169;27;5814;-67
2023/08/17 06:05:10;;;;;;;;;;;;;;;27.82;47.76;97008.97;4245772;27;5745;-67
2023/08/17 06:07:14;;;;;;;;;;;;;;;27.82;47.54;97006.25;4232787;27;5604;-66
2023/08/17 06:09:17;;;;;;;;;;;;;;;27.82;47.60;97007.06;4245272;27;5610;-67
2023/08/17 06:11:20;;;;;;;;;;;;;;;27.83;47.54;97005.16;4248076;27;5766;-67
2023/08/17 06:13:23;;;;;;;;;;;;;;;27.84;47.51;97012.19;4245720;27;6386;-67
2023/08/17 06:15:26;;;;;;;;;;;;;;;27.84;47.21;97013.00;4261534;27;5751;-67
2023/08/17 06:17:28;;;;;;;;;;;;;;;27.85;46.86;97016.53;4246732;27;6471;-67
2023/08/17 06:19:32;;;;;;;;;;;;;;;27.82;47.01;97017.94;4246021;27;5673;-66
2023/08/17 06:21:34;;;;;;;;;;;;;;;27.82;46.83;97023.38;4239545;27;5601;-67
2023/08/17 06:23:39;;;;;;;;;;;;;;;27.82;46.56;97025.28;4243109;27;5594;-67
2023/08/17 06:25:42;;;;;;;;;;;;;;;27.83;46.73;97024.97;4247650;27;5723;-67
2023/08/17 06:27:44;;;;;;;;;;;;;;;27.89;46.58;97028.44;4239489;27;5718;-67
2023/08/17 06:29:46;;;;;;;;;;;;;;;27.93;46.46;97029.44;4246859;27;5589;-67
2023/08/17 06:31:49;;;;;;;;;;;;;;;27.94;46.29;97033.75;4247417;27;5656;-67
2023/08/17 06:33:52;;;;;;;;;;;;;;;27.97;46.22;97041.31;4244020;27;5601;-66
2023/08/17 06:35:55;;;;;;;;;;;;;;;28.01;46.20;97036.09;4221392;28;5620;-67
2023/08/17 06:37:58;;;;;;;;;;;;;;;28.04;46.08;97040.94;4234487;28;5597;-65
2023/08/17 06:40:03;;;;;;;;;;;;;;;28.05;46.05;97043.34;4235643;28;6320;-66
2023/08/17 06:42:06;;;;;;;;;;;;;;;28.05;45.96;97045.25;4235669;28;5609;-65
2023/08/17 06:44:08;;;;;;;;;;;;;;;28.05;45.96;97039.81;4235717;28;5590;-65
2023/08/17 06:46:11;;;;;;;;;;;;;;;28.08;45.88;97047.34;4219130;28;5596;-67
2023/08/17 06:48:14;;;;;;;;;;;;;;;28.11;45.82;97046.78;4219127;28;5612;-65
2023/08/17 06:50:17;;;;;;;;;;;;;;;28.14;45.76;97051.63;4228148;28;5605;-67
2023/08/17 06:52:20;;;;;;;;;;;;;;;28.17;45.78;97056.44;4227474;27;5668;-67
2023/08/17 06:54:23;;;;;;;;;;;;;;;28.19;45.53;97054.22;4244402;27;5582;-67
2023/08/17 06:56:27;;;;;;;;;;;;;;;28.22;45.58;97064.53;4246866;27;6260;-67
2023/08/17 06:58:30;;;;;;;;;;;;;;;28.24;45.62;97073.19;4250376;27;5847;-67
2023/08/17 07:00:35;;;;;;;;;;;;;;;28.26;45.68;97076.41;4236412;28;5586;-65
2023/08/17 07:02:37;;;;;;;;;;;;;;;28.28;45.62;97070.69;4236406;28;6299;-65
2023/08/17 07:04:56;;;;;;;;;;;;;;;28.28;45.64;97070.69;4236321;28;5905;-65
2023/08/17 07:06:59;;;;;;;;;;;;;;;28.25;45.67;97074.78;4243007;27;5652;-66
2023/08/17 07:09:04;;;;;;;;;;;;;;;28.24;45.56;97073.19;4252810;27;5675;-66
2023/08/17 07:11:08;;;;;;;;;;;;;;;28.22;45.80;97086.25;4244961;27;5593;-66
2023/08/17 07:13:12;;;;;;;;;;;;;;;28.25;45.64;97091.09;4226181;28;5774;-66
2023/08/17 07:15:15;;;;;;;;;;;;;;;28.28;45.91;97085.09;4236493;27;5733;-66
2023/08/17 07:17:17;;;;;;;;;;;;;;;28.31;45.87;97089.91;4253140;27;5304;-66
2023/08/17 07:19:20;;;;;;;;;;;;;;;28.33;45.64;97093.16;4243252;27;5667;-66
2023/08/17 07:21:33;;;;;;;;;;;;;;;28.35;45.74;97096.38;4247689;27;5615;-66
2023/08/17 07:23:35;;;;;;;;;;;;;;;28.35;45.79;97090.94;4248840;27;5612;-66
2023/08/17 07:25:38;;;;;;;;;;;;;;;28.35;45.73;97087.41;4235945;28;5594;-66
2023/08/17 07:27:40;;;;;;;;;;;;;;;28.35;45.81;97090.94;4236070;28;5071;-66
2023/08/17 07:29:45;;;;;;;;;;;;;;;28.32;46.03;97088.84;4235686;28;5927;-66
2023/08/17 07:31:48;;;;;;;;;;;;;;;28.29;45.76;97086.69;4236040;28;5757;-66
2023/08/17 07:33:51;;;;;;;;;;;;;;;28.28;45.96;97085.09;4241211;27;5575;-66
2023/08/17 07:35:55;;;;;;;;;;;;;;;28.24;46.00;97083.25;4252742;27;5586;-66
2023/08/17 07:37:57;;;;;;;;;;;;;;;28.22;46.02;97080.84;4237280;27;5609;-66
2023/08/17 07:40:12;;;;;;;;;;;;;;;28.23;46.07;97092.50;4243861;27;5860;-66
2023/08/17 07:42:14;;;;;;;;;;;;;;;28.23;46.20;97093.31;4252195;27;5664;-66
2023/08/17 07:44:16;;;;;;;;;;;;;;;28.24;46.28;97100.34;4243665;27;5702;-66
2023/08/17 07:46:21;;;;;;;;;;;;;;;28.25;46.33;97099.25;4242972;27;5575;-66
2023/08/17 07:48:24;;;;;;;;;;;;;;;28.27;46.43;97105.22;4235620;28;5602;-66
2023/08/17 07:50:27;;;;;;;;;;;;;;;28.30;46.66;97103.81;4237581;27;5590;-66
2023/08/17 07:52:30;;;;;;;;;;;;;;;28.31;46.60;97111.66;4252316;27;5677;-66
2023/08/17 07:54:33;;;;;;;;;;;;;;;28.33;46.65;97114.91;4234127;27;5586;-66
2023/08/17 07:56:35;;;;;;;;;;;;;;;28.34;46.78;97111.09;4225272;28;5734;-66
2023/08/17 07:58:38;;;;;;;;;;;;;;;28.36;46.58;97110.78;4222514;28;5680;-66
2023/08/17 08:00:41;;;;;;;;;;;;;;;28.38;46.70;97111.28;4229401;28;5717;-66
2023/08/17 08:02:47;;;;;;;;;;;;;;;28.40;46.61;97115.31;4229633;28;5699;-67
2023/08/17 08:04:50;;;;;;;;;;;;;;;28.44;46.78;97109.28;4234906;28;5605;-66
2023/08/17 08:06:53;;;;;;;;;;;;;;;28.45;46.80;97110.91;4235225;28;5665;-66
2023/08/17 08:08:56;;;;;;;;;;;;;;;28.46;46.93;97110.59;4249602;27;5726;-67
2023/08/17 08:10:59;;;;;;;;;;;;;;;28.49;46.88;97101.81;4243441;27;5578;-67
2023/08/17 08:13:02;;;;;;;;;;;;;;;28.51;46.77;97098.81;4244855;27;5217;-66
2023/08/17 08:15:07;;;;;;;;;;;;;;;28.51;46.78;97105.03;4234919;28;5609;-66
2023/08/17 08:17:09;;;;;;;;;;;;;;;28.49;46.88;97095.59;4243388;27;5605;-66
2023/08/17 08:19:14;;;;;;;;;;;;;;;28.48;46.68;97102.13;4235154;27;5586;-66
2023/08/17 08:21:17;;;;;;;;;;;;;;;28.45;46.75;97089.16;4251808;27;5614;-67
2023/08/17 08:23:20;;;;;;;;;;;;;;;28.44;46.65;97092.97;4241672;27;5688;-66
2023/08/17 08:25:23;;;;;;;;;;;;;;;28.46;46.75;97093.47;4234432;28;5780;-67
2023/08/17 08:27:26;;;;;;;;;;;;;;;28.46;46.72;97077.16;4234613;28;5597;-67
2023/08/17 08:29:28;;;;;;;;;;;;;;;28.45;46.41;97078.28;4242855;27;5590;-67
2023/08/17 08:31:30;;;;;;;;;;;;;;;28.45;46.36;97078.28;4237514;27;5865;-64
2023/08/17 08:33:33;;;;;;;;;;;;;;;28.44;46.35;97073.94;4239608;27;6127;-66
2023/08/17 08:35:39;;;;;;;;;;;;;;;28.46;46.23;97071.72;4241915;27;5736;-66
2023/08/17 08:37:42;;;;;;;;;;;;;;;28.51;46.09;97077.06;4251773;27;5598;-66
2023/08/17 08:39:53;;;;;;;;;;;;;;;28.52;45.52;97075.94;4237547;27;5593;-66
2023/08/17 08:41:56;;;;;;;;;;;;;;;28.46;44.81;97071.72;4234395;28;5612;-66
2023/08/17 08:43:58;;;;;;;;;;;;;;;28.43;45.16;97081.28;4240183;27;5586;-66
2023/08/17 08:46:01;;;;;;;;;;;;;;;28.46;45.15;97071.72;4251587;27;5685;-66
2023/08/17 08:48:06;;;;;;;;;;;;;;;28.50;44.95;97080.88;4243944;27;5600;-66
2023/08/17 08:50:14;;;;;;;;;;;;;;;28.52;44.86;97078.66;4234516;28;5597;-67
2023/08/17 08:52:29;;;;;;;;;;;;;;;28.55;44.54;97078.06;4234166;28;5625;-65
2023/08/17 08:54:33;;;;;;;;;;;;;;;28.51;44.43;97066.97;4237165;27;5590;-66
2023/08/17 08:56:46;;;;;;;;;;;;;;;28.50;44.60;97064.56;4247231;27;5676;-66
2023/08/17 08:58:49;;;;;;;;;;;;;;;28.44;44.66;97066.59;4234689;28;5589;-66
2023/08/17 09:00:58;;;;;;;;;;;;;;;28.44;44.81;97073.94;4234454;28;5617;-66
2023/08/17 09:03:03;;;;;;;;;;;;;;;28.42;44.75;97068.78;4234365;28;5752;-66
2023/08/17 09:05:09;;;;;;;;;;;;;;;28.42;45.00;97069.59;4219407;28;5627;-66
2023/08/17 09:07:13;;;;;;;;;;;;;;;28.40;44.97;97071.81;4234569;28;5605;-66
2023/08/17 09:09:19;;;;;;;;;;;;;;;28.35;44.95;97071.91;4225691;28;5611;-66
2023/08/17 09:11:22;;;;;;;;;;;;;;;28.32;45.13;97063.56;4224486;28;5671;-66
2023/08/17 09:13:25;;;;;;;;;;;;;;;28.32;45.23;97069.81;4217563;27;6448;-66
2023/08/17 09:15:28;;;;;;;;;;;;;;;28.34;45.15;97061.34;4220348;27;5064;-66
2023/08/17 09:17:34;;;;;;;;;;;;;;;28.35;45.17;97063.75;4234238;28;5649;-66
2023/08/17 09:19:37;;;;;;;;;;;;;;;28.33;45.18;97055.09;4224447;27;5833;-66
2023/08/17 09:21:45;;;;;;;;;;;;;;;28.36;45.22;97059.13;4238044;27;5892;-66
2023/08/17 09:23:53;;;;;;;;;;;;;;;28.39;45.18;97059.31;4242028;27;5735;-66
2023/08/17 09:26:09;;;;;;;;;;;;;;;28.42;45.31;97056.00;4237953;27;5680;-66
2023/08/17 09:28:14;;;;;;;;;;;;;;;28.46;45.31;97058.13;4234301;27;5691;-67
2023/08/17 09:30:17;;;;;;;;;;;;;;;28.46;45.29;97049.97;4216434;28;5632;-67
2023/08/17 09:32:21;;;;;;;;;;;;;;;28.48;45.49;97047.75;4242457;27;5684;-66
2023/08/17 09:34:24;;;;;;;;;;;;;;;28.49;45.52;97046.63;4245343;27;5618;-67
2023/08/17 09:36:27;;;;;;;;;;;;;;;28.48;45.57;97037.66;4240185;27;5677;-67
2023/08/17 09:38:30;;;;;;;;;;;;;;;28.55;45.50;97042.72;4236530;27;6031;-67
2023/08/17 09:40:33;;;;;;;;;;;;;;;28.56;45.54;97041.59;4250956;27;6265;-66
2023/08/17 09:42:39;;;;;;;;;;;;;;;28.59;45.63;97041.00;4242398;27;5703;-66
2023/08/17 09:44:43;;;;;;;;;;;;;;;28.61;45.76;97046.94;4246678;27;5577;-67
2023/08/17 09:46:46;;;;;;;;;;;;;;;28.64;45.54;97049.03;4242355;27;5593;-66
2023/08/17 09:48:49;;;;;;;;;;;;;;;28.65;45.74;97045.22;4242466;27;5815;-66
2023/08/17 09:50:51;;;;;;;;;;;;;;;28.66;45.79;97049.56;4248277;27;5791;-67
2023/08/17 09:52:54;;;;;;;;;;;;;;;28.68;45.76;97044.63;4236043;27;5613;-66
2023/08/17 09:55:03;;;;;;;;;;;;;;;28.70;45.79;97043.19;4233905;28;5613;-65
2023/08/17 09:57:10;;;;;;;;;;;;;;;28.74;45.62;97034.44;4242257;27;5625;-66
2023/08/17 09:59:15;;;;;;;;;;;;;;;28.75;45.63;97028.69;4217330;28;5621;-66
2023/08/17 10:01:19;;;;;;;;;;;;;;;28.77;45.63;97022.94;4232976;28;5840;-66
2023/08/17 10:03:22;;;;;;;;;;;;;;;28.80;45.65;97017.69;4235337;27;6289;-66
2023/08/17 10:05:29;;;;;;;;;;;;;;;28.83;45.55;97013.56;4250857;27;5579;-66
2023/08/17 10:07:35;;;;;;;;;;;;;;;28.84;45.36;97005.09;4247914;27;5630;-66
2023/08/17 10:09:46;;;;;;;;;;;;;;;28.83;45.37;96992.59;4247566;27;5589;-66
2023/08/17 10:11:53;;;;;;;;;;;;;;;28.82;45.46;97001.88;4239815;27;5598;-66
2023/08/17 10:14:02;;;;;;;;;;;;;;;28.78;44.88;96991.91;4236902;28;5696;-67
2023/08/17 10:16:15;;;;;;;;;;;;;;;28.79;44.85;96991.59;4236965;28;5620;-66
2023/08/17 10:18:28;;;;;;;;;;;;;;;28.84;44.72;96994.22;4221751;27;5616;-66
2023/08/17 10:20:34;;;;;;;;;;;;;;;28.88;44.89;96992.53;4253908;27;5733;-66
2023/08/17 10:22:44;;;;;;;;;;;;;;;28.92;44.76;96993.53;4249994;27;5593;-66
2023/08/17 10:24:48;;;;;;;;;;;;;;;28.96;44.68;96980.91;4244755;27;5687;-66
2023/08/17 10:26:53;;;;;;;;;;;;;;;29.01;44.36;96984.63;4237021;28;5601;-66
2023/08/17 10:29:02;;;;;;;;;;;;;;;29.04;44.06;96989.47;4243288;27;5586;-66
2023/08/17 10:31:17;;;;;;;;;;;;;;;29.05;44.28;96977.47;4237324;27;5602;-66
2023/08/17 10:33:20;;;;;;;;;;;;;;;29.04;44.46;96976.66;4252428;27;5598;-66
2023/08/17 10:35:24;;;;;;;;;;;;;;;29.08;44.47;96974.13;4236648;28;5816;-66
2023/08/17 10:37:27;;;;;;;;;;;;;;;29.11;44.40;96965.31;4247297;27;5738;-66
2023/08/17 10:39:31;;;;;;;;;;;;;;;29.11;44.57;96960.72;4250625;27;5796;-66
2023/08/17 10:41:47;;;;;;;;;;;;;;;29.10;44.62;96964.53;4247210;27;5566;-66
2023/08/17 10:43:57;;;;;;;;;;;;;;;29.10;44.74;96963.72;4239483;27;5593;-66
2023/08/17 10:46:17;;;;;;;;;;;;;;;29.08;44.73;96965.94;4236405;28;5692;-66
2023/08/17 10:48:28;;;;;;;;;;;;;;;29.03;44.76;96960.63;4230300;27;5692;-66
2023/08/17 10:50:32;;;;;;;;;;;;;;;28.99;44.93;96961.25;4251022;27;5767;-66
2023/08/17 10:52:37;;;;;;;;;;;;;;;28.97;44.99;96958.00;4236346;28;5590;-66
2023/08/17 10:54:42;;;;;;;;;;;;;;;29.01;45.13;96949.25;4235868;28;6278;-66
2023/08/17 10:56:45;;;;;;;;;;;;;;;29.05;44.93;96950.25;4249483;27;5578;-66
2023/08/17 10:58:52;;;;;;;;;;;;;;;29.06;44.85;96947.22;4246579;27;5582;-66
2023/08/17 11:00:55;;;;;;;;;;;;;;;29.07;44.89;96945.28;4247906;27;5710;-66
2023/08/17 11:03:01;;;;;;;;;;;;;;;29.09;44.67;96943.06;4236101;28;5593;-68
2023/08/17 11:05:04;;;;;;;;;;;;;;;29.11;44.94;96944.38;4244784;27;5606;-67
2023/08/17 11:07:15;;;;;;;;;;;;;;;29.15;44.76;96939.13;4236225;28;5076;-67
2023/08/17 11:09:19;;;;;;;;;;;;;;;29.18;44.86;96938.50;4232640;28;5600;-67
2023/08/17 11:11:23;;;;;;;;;;;;;;;29.23;44.81;96930.22;4236652;27;5625;-66
2023/08/17 11:13:29;;;;;;;;;;;;;;;29.26;44.68;96930.38;4242558;27;5589;-66
2023/08/17 11:15:42;;;;;;;;;;;;;;;29.29;44.55;96927.03;4230800;28;5700;-66
2023/08/17 11:17:45;;;;;;;;;;;;;;;29.34;44.66;96928.03;4230387;28;5601;-66
2023/08/17 11:19:51;;;;;;;;;;;;;;;29.35;44.66;96919.56;4234644;28;5609;-66
2023/08/17 11:21:54;;;;;;;;;;;;;;;29.40;44.62;96924.06;4233070;28;6711;-66
2023/08/17 11:23:58;;;;;;;;;;;;;;;29.40;44.53;96913.97;4228276;28;5691;-67
2023/08/17 11:26:00;;;;;;;;;;;;;;;29.42;44.58;96913.66;4234442;28;5652;-67
2023/08/17 11:28:04;;;;;;;;;;;;;;;29.42;44.56;96911.72;4234379;28;5617;-66
2023/08/17 11:30:08;;;;;;;;;;;;;;;29.42;44.41;96917.19;4234007;28;5687;-66
2023/08/17 11:32:12;;;;;;;;;;;;;;;29.44;44.30;96911.41;4217544;28;6247;-67
2023/08/17 11:34:16;;;;;;;;;;;;;;;29.41;44.08;96907.41;4234386;28;5696;-66
2023/08/17 11:36:21;;;;;;;;;;;;;;;29.39;44.00;96912.38;4234520;28;5689;-67
2023/08/17 11:38:25;;;;;;;;;;;;;;;29.38;43.60;96910.75;4230359;28;5613;-67
2023/08/17 11:40:28;;;;;;;;;;;;;;;29.37;43.48;96909.16;4217784;28;5767;-67
2023/08/17 11:42:31;;;;;;;;;;;;;;;29.36;43.46;96907.56;4230115;28;5897;-66
2023/08/17 11:44:34;;;;;;;;;;;;;;;29.37;43.42;96903.72;4235690;28;5836;-66
2023/08/17 11:46:37;;;;;;;;;;;;;;;29.36;43.07;96899.38;4239374;27;5578;-65
2023/08/17 11:48:40;;;;;;;;;;;;;;;29.36;43.11;96907.56;4227168;27;5724;-66
2023/08/17 11:50:43;;;;;;;;;;;;;;;29.39;43.00;96901.47;4244177;27;7659;-66
2023/08/17 11:52:48;;;;;;;;;;;;;;;29.39;42.99;96901.47;4245853;27;5764;-65
2023/08/17 11:54:51;;;;;;;;;;;;;;;29.39;42.76;96903.41;4243471;27;5657;-66
2023/08/17 11:56:54;;;;;;;;;;;;;;;29.37;42.77;96901.00;4241497;27;5612;-66
2023/08/17 11:58:57;;;;;;;;;;;;;;;29.37;42.58;96895.53;4244913;27;6284;-66
2023/08/17 12:01:00;;;;;;;;;;;;;;;29.35;42.31;96897.78;4236705;27;5598;-65
2023/08/17 12:03:04;;;;;;;;;;;;;;;29.33;42.19;96891.81;4241719;27;5835;-65
2023/08/17 12:05:07;;;;;;;;;;;;;;;29.34;42.30;96887.19;4243595;27;5097;-66
2023/08/17 12:07:10;;;;;;;;;;;;;;;29.34;42.15;96893.44;4235212;27;5813;-65
2023/08/17 12:09:15;;;;;;;;;;;;;;;29.35;42.22;96889.59;4235044;27;5730;-66
2023/08/17 12:11:18;;;;;;;;;;;;;;;29.37;42.10;96886.56;4242818;27;5839;-66
2023/08/17 12:13:31;;;;;;;;;;;;;;;29.38;42.07;96891.69;4235269;28;5729;-66
2023/08/17 12:15:35;;;;;;;;;;;;;;;29.35;41.96;96877.91;4239718;27;5601;-66
2023/08/17 12:17:45;;;;;;;;;;;;;;;29.37;41.86;96887.38;4225681;27;5566;-67
2023/08/17 12:19:50;;;;;;;;;;;;;;;29.39;41.76;96882.41;4238513;27;5616;-66
2023/08/17 12:21:53;;;;;;;;;;;;;;;29.40;41.46;96878.56;4240718;27;5610;-67
2023/08/17 12:23:56;;;;;;;;;;;;;;;29.43;41.49;96877.94;4236609;27;5590;-65
2023/08/17 12:26:01;;;;;;;;;;;;;;;29.45;41.51;96878.44;4243233;27;6335;-67
2023/08/17 12:28:04;;;;;;;;;;;;;;;29.47;41.36;96870.81;4234944;28;5605;-67
2023/08/17 12:30:24;;;;;;;;;;;;;;;29.47;41.17;96870.81;4234795;27;5606;-66
2023/08/17 12:32:27;;;;;;;;;;;;;;;29.46;41.23;96873.81;4236162;27;5586;-65
2023/08/17 12:34:31;;;;;;;;;;;;;;;29.48;41.16;96872.41;4236318;27;5916;-67